Time;durP1;ratioP1;P1;durP2;ratioP2;P2;SDS_P1;SDS_P2;PMS_P1;PMS_P2;Temp;Humidity;BMP_temperature;BMP_pressure;BME280_temperature;BME280_humidity;BME280_pressure;Samples;Min_cycle;Max_cycle;Signal;HPM_P1;HPM_P2
2022/11/10 00:01:17;;;;;;;4.32;1.30;;;;;;;12.25;100.00;100629.91;5221786;28;20410;-73
2022/11/10 00:03:49;;;;;;;11.52;1.70;;;;;;;12.29;100.00;100636.75;5221909;28;20104;-73
2022/11/10 00:06:19;;;;;;;6.13;1.58;;;;;;;12.32;100.00;100647.91;5221689;28;20295;-73
2022/11/10 00:08:49;;;;;;;9.18;1.67;;;;;;;12.22;100.00;100657.09;5220606;28;20483;-74
2022/11/10 00:11:19;;;;;;;8.23;1.75;;;;;;;12.21;100.00;100642.28;5221453;28;20606;-74
2022/11/10 00:19:28;;;;;;;6.57;1.40;;;;;;;12.09;100.00;100661.13;5220029;28;20087;-74
2022/11/10 00:22:00;;;;;;;9.65;1.80;;;;;;;12.09;100.00;100661.13;5221717;28;20037;-74
2022/11/10 00:24:30;;;;;;;6.15;1.20;;;;;;;12.22;100.00;100664.09;5221546;28;20086;-74
2022/11/10 00:27:01;;;;;;;11.60;1.85;;;;;;;12.13;100.00;100670.56;5220872;28;20040;-74
2022/11/10 00:29:31;;;;;;;7.15;1.50;;;;;;;12.05;100.00;100667.41;5220904;28;20036;-74
2022/11/10 00:32:02;;;;;;;8.75;1.70;;;;;;;12.04;100.00;100672.69;5221500;28;20403;-74
2022/11/10 00:34:32;;;;;;;7.88;1.73;;;;;;;12.01;100.00;100678.94;5218858;28;20104;-74
2022/11/10 00:37:03;;;;;;;10.45;2.00;;;;;;;12.09;100.00;100682.09;5219341;28;20025;-73
2022/11/10 00:39:33;;;;;;;11.57;1.83;;;;;;;12.05;100.00;100693.59;5220841;28;20023;-73
2022/11/10 00:42:03;;;;;;;8.02;1.60;;;;;;;12.06;100.00;100694.44;5221672;28;20036;-74
2022/11/10 00:44:34;;;;;;;9.45;1.80;;;;;;;12.05;100.00;100693.59;5220031;28;20021;-74
2022/11/10 00:47:04;;;;;;;10.13;2.25;;;;;;;11.98;100.00;100694.75;5220890;28;20041;-73
2022/11/10 00:49:34;;;;;;;10.55;1.58;;;;;;;11.95;100.00;100696.66;5221392;28;20483;-73
2022/11/10 00:52:05;;;;;;;7.75;1.40;;;;;;;11.95;100.00;100697.47;5221919;28;20037;-74
2022/11/10 00:54:35;;;;;;;9.10;1.70;;;;;;;11.91;100.00;100701.16;5221003;28;20075;-73
2022/11/10 00:57:05;;;;;;;8.13;1.70;;;;;;;11.98;100.00;100699.97;5221115;28;20028;-74
2022/11/10 00:59:36;;;;;;;7.18;1.50;;;;;;;12.07;100.00;100704.00;5221262;28;20112;-74
2022/11/10 01:02:06;;;;;;;7.90;1.40;;;;;;;11.99;100.00;100709.53;5220910;28;20059;-73
2022/11/10 01:04:36;;;;;;;9.75;1.58;;;;;;;12.00;100.00;100711.28;5221151;28;20029;-74
2022/11/10 01:07:06;;;;;;;8.50;1.90;;;;;;;11.94;100.00;100715.91;5220517;28;20025;-74
2022/11/10 01:09:37;;;;;;;8.57;1.70;;;;;;;12.02;100.00;100719.06;5220850;28;20401;-73
2022/11/10 01:12:07;;;;;;;7.45;1.50;;;;;;;11.93;100.00;100719.44;5221403;28;20074;-74
2022/11/10 01:14:38;;;;;;;8.70;1.65;;;;;;;11.97;100.00;100721.00;5221418;28;20475;-74
2022/11/10 01:17:08;;;;;;;9.88;1.52;;;;;;;11.91;100.00;100737.81;5217899;28;20478;-74
2022/11/10 01:19:40;;;;;;;7.43;1.60;;;;;;;11.91;100.00;100729.94;5220473;28;20104;-74
2022/11/10 01:22:11;;;;;;;6.68;1.33;;;;;;;11.97;100.00;100736.72;5218503;28;20349;-72
2022/11/10 01:24:41;;;;;;;11.90;1.75;;;;;;;11.87;100.00;100741.47;5220776;28;20282;-74
2022/11/10 01:27:11;;;;;;;6.03;1.33;;;;;;;11.86;100.00;100749.38;5213494;28;20036;-73
2022/11/10 01:29:42;;;;;;;9.20;1.60;;;;;;;11.85;100.00;100745.91;5215051;28;20025;-73
2022/11/10 01:32:12;;;;;;;6.13;1.33;;;;;;;11.86;100.00;100755.47;5216317;28;20454;-73
2022/11/10 01:34:42;;;;;;;14.02;1.77;;;;;;;11.91;100.00;100750.03;5220431;28;20114;-73
2022/11/10 01:37:12;;;;;;;5.65;1.50;;;;;;;11.94;100.00;100752.56;5219980;28;20032;-73
2022/11/10 01:39:43;;;;;;;9.07;1.45;;;;;;;11.96;100.00;100759.44;5220371;28;20025;-73
2022/11/10 01:42:13;;;;;;;6.65;1.27;;;;;;;11.88;100.00;100765.88;5220840;28;20035;-73
2022/11/10 01:45:21;;;;;;;9.00;1.65;;;;;;;12.06;100.00;100760.78;5219307;28;20112;-74
2022/11/10 01:48:05;;;;;;;12.02;1.83;;;;;;;11.96;100.00;100753.34;5217776;28;20109;-73
2022/11/10 01:50:39;;;;;;;8.95;1.75;;;;;;;11.89;100.00;100755.34;5216110;28;20094;-73
2022/11/10 01:53:16;;;;;;;7.72;1.83;;;;;;;11.93;100.00;100769.19;5221230;28;20040;-73
2022/11/10 01:55:47;;;;;;;11.77;1.92;;;;;;;11.91;100.00;100761.38;5220336;28;20592;-74
2022/11/10 01:58:23;;;;;;;8.93;1.67;;;;;;;11.84;100.00;100765.16;5220013;28;20039;-73
2022/11/10 02:00:53;;;;;;;8.25;2.05;;;;;;;11.84;100.00;100773.00;5219492;28;20025;-73
2022/11/10 02:03:46;;;;;;;5.93;1.80;;;;;;;11.79;100.00;100768.84;5219533;28;20100;-73
2022/11/10 02:06:19;;;;;;;7.93;1.60;;;;;;;11.76;100.00;100761.13;5217613;28;20032;-73
2022/11/10 02:08:50;;;;;;;9.98;2.03;;;;;;;11.80;100.00;100766.16;5219837;28;20029;-73
2022/11/10 02:11:21;;;;;;;6.68;1.45;;;;;;;11.77;100.00;100768.91;5217285;28;20040;-74
2022/11/10 02:13:52;;;;;;;10.77;1.70;;;;;;;11.77;100.00;100770.69;5219768;28;20045;-74
2022/11/10 02:16:23;;;;;;;9.85;1.60;;;;;;;11.69;100.00;100776.19;5219679;28;20075;-71
2022/11/10 02:18:53;;;;;;;8.38;1.88;;;;;;;11.69;100.00;100772.72;5218517;28;20108;-74
2022/11/10 02:21:23;;;;;;;12.50;2.00;;;;;;;11.54;100.00;100781.97;5220066;28;20057;-74
2022/11/10 02:23:53;;;;;;;10.23;2.15;;;;;;;11.47;100.00;100788.31;5219826;28;20052;-74
2022/11/10 02:26:28;;;;;;;8.48;1.90;;;;;;;11.39;100.00;100795.59;5218799;28;20065;-74
2022/11/10 02:28:58;;;;;;;9.30;2.47;;;;;;;11.29;100.00;100801.19;5219415;28;20033;-74
2022/11/10 02:31:29;;;;;;;9.18;2.05;;;;;;;11.21;100.00;100806.69;5220120;28;20033;-74
2022/11/10 02:33:59;;;;;;;5.45;1.52;;;;;;;11.16;100.00;100800.78;5219489;28;20084;-73
2022/11/10 02:36:30;;;;;;;8.95;2.03;;;;;;;11.16;100.00;100813.84;5219167;28;20108;-73
2022/11/10 02:39:00;;;;;;;9.80;1.73;;;;;;;11.14;100.00;100813.03;5219244;28;20029;-74
2022/11/10 02:41:30;;;;;;;10.27;2.15;;;;;;;11.16;100.00;100819.09;5219746;28;20024;-73
2022/11/10 02:44:02;;;;;;;13.30;1.73;;;;;;;11.14;100.00;100823.47;5222370;28;20379;-73
2022/11/10 02:46:32;;;;;;;8.95;2.10;;;;;;;11.11;100.00;100833.22;5224152;28;20029;-74
2022/11/10 02:49:02;;;;;;;7.75;1.50;;;;;;;11.04;100.00;100823.84;5218682;28;20101;-74
2022/11/10 02:51:33;;;;;;;9.75;1.58;;;;;;;11.07;100.00;100829.84;5222954;28;20021;-74
2022/11/10 02:54:04;;;;;;;6.70;2.00;;;;;;;11.02;100.00;100834.38;5223651;28;20060;-72
2022/11/10 02:56:35;;;;;;;5.15;1.50;;;;;;;10.97;100.00;100834.56;5222672;28;20029;-73
2022/11/10 02:59:05;;;;;;;8.38;1.85;;;;;;;10.91;100.00;100832.16;5223484;28;20411;-74
2022/11/10 03:01:36;;;;;;;12.73;1.95;;;;;;;10.96;100.00;100835.47;5222592;28;20056;-74
2022/11/10 03:04:06;;;;;;;7.32;1.73;;;;;;;10.98;100.00;100838.88;5223172;28;20029;-74
2022/11/10 03:06:36;;;;;;;11.02;2.00;;;;;;;10.94;100.00;100832.06;5223005;28;20033;-73
2022/11/10 03:09:07;;;;;;;8.07;1.83;;;;;;;10.82;100.00;100838.53;5222593;28;20040;-74
2022/11/10 03:11:37;;;;;;;7.43;1.88;;;;;;;10.85;100.00;100837.59;5223440;28;20029;-74
2022/11/10 03:14:07;;;;;;;9.52;1.83;;;;;;;10.76;100.00;100845.72;5220334;28;20048;-74
2022/11/10 03:16:38;;;;;;;11.32;2.30;;;;;;;10.64;100.00;100838.25;5222885;28;20489;-74
2022/11/10 03:19:08;;;;;;;10.88;1.85;;;;;;;10.62;100.00;100845.31;5222204;28;20037;-72
2022/11/10 03:21:38;;;;;;;10.23;1.95;;;;;;;10.54;100.00;100842.91;5222742;28;20025;-73
2022/11/10 03:24:09;;;;;;;9.32;2.00;;;;;;;10.61;100.00;100848.81;5222289;28;20100;-74
2022/11/10 03:26:39;;;;;;;13.60;2.47;;;;;;;10.51;100.00;100848.25;5222455;28;20025;-73
2022/11/10 03:29:09;;;;;;;13.68;2.13;;;;;;;10.41;100.00;100845.97;5222681;28;20079;-73
2022/11/10 03:31:39;;;;;;;9.27;2.00;;;;;;;10.41;100.00;100851.19;5222918;28;20025;-73
2022/11/10 03:34:10;;;;;;;11.82;2.20;;;;;;;10.42;100.00;100859.00;5221546;28;20087;-73
2022/11/10 03:36:40;;;;;;;11.65;2.40;;;;;;;10.38;100.00;100861.75;5221580;28;20487;-73
2022/11/10 03:39:11;;;;;;;8.32;2.10;;;;;;;10.39;100.00;100861.72;5221986;28;20047;-73
2022/11/10 03:41:41;;;;;;;13.60;3.28;;;;;;;10.47;100.00;100853.59;5222454;28;20478;-73
2022/11/10 03:44:11;;;;;;;12.10;2.10;;;;;;;10.37;100.00;100862.66;5222703;28;20056;-73
2022/11/10 03:46:42;;;;;;;9.43;2.55;;;;;;;10.37;100.00;100866.09;5222029;28;20025;-74
2022/11/10 03:49:12;;;;;;;13.77;2.40;;;;;;;10.36;100.00;100866.16;5221762;28;20040;-72
2022/11/10 03:51:42;;;;;;;11.23;2.25;;;;;;;10.31;100.00;100865.47;5222397;28;20028;-74
2022/11/10 03:54:12;;;;;;;7.55;2.10;;;;;;;10.31;100.00;100873.28;5221997;28;20036;-72
2022/11/10 03:56:43;;;;;;;11.82;2.38;;;;;;;10.33;100.00;100874.09;5222208;28;20465;-74
2022/11/10 03:59:13;;;;;;;10.80;2.15;;;;;;;10.22;100.00;100874.41;5222058;28;20065;-73
2022/11/10 04:01:43;;;;;;;11.23;2.25;;;;;;;10.26;100.00;100889.09;5220969;28;20452;-74
2022/11/10 04:09:51;;;;;;;10.23;2.58;;;;;;;10.19;100.00;100894.53;5220472;28;20282;-73
2022/11/10 04:20:55;;;;;;;12.45;2.40;;;;;;;10.15;100.00;100905.97;5220165;28;20090;-74
2022/11/10 04:23:35;;;;;;;14.52;2.70;;;;;;;10.10;100.00;100905.22;5222203;28;20025;-73
2022/11/10 04:28:59;;;;;;;10.10;2.88;;;;;;;10.05;100.00;100918.44;5222191;28;20119;-74
2022/11/10 04:31:32;;;;;;;11.73;2.78;;;;;;;10.06;100.00;100916.66;5220428;28;20036;-73
2022/11/10 04:34:04;;;;;;;11.23;2.75;;;;;;;10.09;100.00;100932.25;5216960;28;20075;-74
2022/11/10 04:36:36;;;;;;;8.32;2.35;;;;;;;10.09;100.00;100932.25;5221116;28;20027;-73
2022/11/10 04:39:07;;;;;;;9.88;3.05;;;;;;;10.04;100.00;100935.00;5221551;28;20264;-74
2022/11/10 04:41:37;;;;;;;9.07;2.55;;;;;;;10.03;100.00;100942.88;5222111;28;20025;-73
2022/11/10 04:44:07;;;;;;;12.65;2.95;;;;;;;10.03;100.00;100928.03;5221951;28;20028;-72
2022/11/10 04:46:39;;;;;;;12.57;3.13;;;;;;;9.97;100.00;100932.56;5221262;28;20032;-73
2022/11/10 04:51:47;;;;;;;10.70;2.80;;;;;;;9.97;100.00;100954.31;5167778;28;20268;-77
2022/11/10 04:54:17;;;;;;;12.05;2.53;;;;;;;9.94;100.00;100943.06;5173266;28;20026;-77
2022/11/10 04:56:47;;;;;;;12.25;3.05;;;;;;;9.88;100.00;100965.00;5168085;28;20030;-77
2022/11/10 04:59:17;;;;;;;14.32;3.40;;;;;;;9.92;100.00;100970.97;5177658;28;20058;-77
2022/11/10 05:01:48;;;;;;;10.75;3.15;;;;;;;9.89;100.00;100977.16;5195195;28;20036;-77
2022/11/10 05:04:18;;;;;;;11.75;2.92;;;;;;;9.87;100.00;100975.47;5192624;28;20064;-77
2022/11/10 05:06:48;;;;;;;12.13;3.08;;;;;;;9.90;100.00;100978.00;5191580;28;20124;-77
2022/11/10 05:09:19;;;;;;;9.02;3.17;;;;;;;9.93;100.00;100983.13;5192641;28;20041;-76
2022/11/10 05:11:49;;;;;;;11.55;3.10;;;;;;;9.89;100.00;100978.91;5197133;28;20041;-77
2022/11/10 05:14:19;;;;;;;12.07;3.17;;;;;;;9.91;100.00;100991.03;5190122;28;20025;-77
2022/11/10 05:16:49;;;;;;;15.18;3.30;;;;;;;9.89;100.00;100991.94;5194978;28;20128;-77
2022/11/10 05:19:20;;;;;;;15.90;3.08;;;;;;;9.99;100.00;100996.06;5198906;28;20110;-76
2022/11/10 05:21:50;;;;;;;13.70;3.22;;;;;;;10.01;100.00;101002.97;5200631;28;20120;-77
2022/11/10 05:24:20;;;;;;;12.75;3.35;;;;;;;10.03;100.00;101000.31;5199101;28;20029;-77
2022/11/10 05:26:51;;;;;;;10.63;3.28;;;;;;;10.01;100.00;100996.88;5192855;28;20488;-76
2022/11/10 05:29:21;;;;;;;12.65;3.20;;;;;;;9.95;100.00;101008.31;5197162;28;20048;-77
2022/11/10 05:31:51;;;;;;;11.38;3.25;;;;;;;9.88;100.00;101018.97;5198245;28;20037;-77
2022/11/10 05:34:22;;;;;;;10.07;3.20;;;;;;;9.87;100.00;101014.63;5181436;28;20029;-77
2022/11/10 05:36:52;;;;;;;14.88;3.58;;;;;;;9.88;100.00;101022.44;5186309;28;20115;-77
2022/11/10 05:39:22;;;;;;;9.75;2.90;;;;;;;9.86;100.00;101020.75;5193559;28;20029;-76
2022/11/10 05:41:53;;;;;;;11.52;3.10;;;;;;;9.87;100.00;101018.13;5200516;28;20026;-76
2022/11/10 05:44:23;;;;;;;13.98;3.05;;;;;;;9.88;100.00;101018.97;5200587;28;20260;-77
2022/11/10 05:46:53;;;;;;;20.05;3.45;;;;;;;9.79;100.00;101022.66;5200401;28;20076;-76
2022/11/10 05:49:24;;;;;;;14.57;3.42;;;;;;;9.86;100.00;101033.81;5198206;28;20232;-76
2022/11/10 05:51:54;;;;;;;13.40;3.38;;;;;;;9.86;100.00;101039.03;5199964;28;20021;-76
2022/11/10 05:54:24;;;;;;;14.23;3.45;;;;;;;9.88;100.00;101037.22;5197353;28;20087;-77
2022/11/10 05:56:54;;;;;;;13.77;3.35;;;;;;;9.95;100.00;101059.66;5186170;28;20489;-76
2022/11/10 05:59:25;;;;;;;18.38;3.75;;;;;;;9.95;100.00;101054.44;5194986;28;20048;-77
2022/11/10 06:01:55;;;;;;;10.20;3.20;;;;;;;9.99;100.00;101053.50;5187387;28;20036;-77
2022/11/10 06:04:25;;;;;;;11.65;3.33;;;;;;;9.96;100.00;101070.09;5186905;28;20499;-77
2022/11/10 06:06:56;;;;;;;12.52;3.25;;;;;;;10.03;100.00;101078.66;5193040;28;20029;-77
2022/11/10 06:09:26;;;;;;;15.18;3.47;;;;;;;10.00;100.00;101078.72;5188770;28;20171;-77
2022/11/10 06:11:56;;;;;;;10.00;3.30;;;;;;;10.07;100.00;101075.94;5191068;28;20183;-77
2022/11/10 06:14:26;;;;;;;13.48;3.70;;;;;;;10.03;100.00;101076.03;5195224;28;20551;-77
2022/11/10 06:16:57;;;;;;;14.13;3.65;;;;;;;10.12;100.00;101083.63;5191089;28;20160;-77
2022/11/10 06:19:27;;;;;;;13.80;3.83;;;;;;;10.16;100.00;101077.44;5194187;28;20025;-77
2022/11/10 06:21:57;;;;;;;13.98;3.28;;;;;;;10.18;100.00;101092.16;5203870;28;20307;-77
2022/11/10 06:24:28;;;;;;;12.52;3.20;;;;;;;10.22;100.00;101090.34;5199692;28;20032;-77
2022/11/10 06:26:58;;;;;;;16.75;3.83;;;;;;;10.27;100.00;101111.97;5204439;28;20445;-76
2022/11/10 06:29:28;;;;;;;14.05;3.30;;;;;;;10.35;100.00;101113.50;5203451;28;20062;-77
2022/11/10 06:31:59;;;;;;;13.80;3.42;;;;;;;10.42;100.00;101103.75;5197401;28;20049;-76
2022/11/10 06:34:29;;;;;;;13.90;3.47;;;;;;;10.46;100.00;101116.69;5195866;28;20139;-76
2022/11/10 06:36:59;;;;;;;7.85;2.80;;;;;;;10.47;100.00;101117.53;5193525;28;20422;-77
2022/11/10 06:39:29;;;;;;;11.18;2.83;;;;;;;10.60;100.00;101113.69;5189917;28;20126;-77
2022/11/10 06:42:00;;;;;;;15.40;3.40;;;;;;;10.48;100.00;101109.66;5200425;28;20082;-77
2022/11/10 06:44:30;;;;;;;15.80;3.30;;;;;;;10.55;100.00;101120.81;5204492;28;20041;-77
2022/11/10 06:47:00;;;;;;;10.95;2.92;;;;;;;10.46;100.00;101131.50;5198942;28;20396;-74
2022/11/10 06:49:31;;;;;;;12.13;3.38;;;;;;;10.34;100.00;101134.44;5199530;28;20534;-77
2022/11/10 06:52:01;;;;;;;9.55;3.25;;;;;;;10.35;100.00;101139.63;5201302;28;20028;-77
2022/11/10 06:54:31;;;;;;;12.38;3.33;;;;;;;10.37;100.00;101143.03;5198445;28;20115;-76
2022/11/10 06:57:02;;;;;;;12.00;3.33;;;;;;;10.24;100.00;101152.13;5189396;28;20045;-76
2022/11/10 06:59:32;;;;;;;14.02;3.13;;;;;;;10.32;100.00;101144.09;5197867;28;20028;-76
2022/11/10 07:02:02;;;;;;;14.77;3.40;;;;;;;10.31;100.00;101150.22;5194640;28;20112;-76
2022/11/10 07:04:33;;;;;;;13.63;3.85;;;;;;;10.17;100.00;101154.91;5203010;28;20025;-76
2022/11/10 07:07:03;;;;;;;16.08;3.60;;;;;;;10.31;100.00;101152.81;5191056;28;20030;-76
2022/11/10 07:09:33;;;;;;;11.80;3.63;;;;;;;10.23;100.00;101162.59;5195495;28;20497;-76
2022/11/10 07:12:04;;;;;;;12.45;3.13;;;;;;;10.32;100.00;101183.28;5203201;28;20036;-76
2022/11/10 07:14:34;;;;;;;16.20;3.47;;;;;;;10.19;100.00;101190.53;5202840;28;20025;-76
2022/11/10 07:17:04;;;;;;;14.73;3.67;;;;;;;10.18;100.00;101196.66;5202649;28;20245;-76
2022/11/10 07:19:35;;;;;;;17.20;3.45;;;;;;;10.22;100.00;101207.88;5201531;28;20431;-77
2022/11/10 07:22:06;;;;;;;8.93;2.80;;;;;;;10.21;100.00;101227.06;5203371;28;20449;-76
2022/11/10 07:24:37;;;;;;;11.18;3.10;;;;;;;10.30;100.00;101226.84;5203297;28;20013;-76
2022/11/10 07:27:07;;;;;;;11.50;2.97;;;;;;;10.29;100.00;101222.50;5202500;28;20095;-76
2022/11/10 07:29:38;;;;;;;14.35;3.42;;;;;;;10.32;100.00;101225.91;5217396;28;20490;-75
2022/11/10 07:32:08;;;;;;;9.50;2.75;;;;;;;10.45;100.00;101239.53;5197005;28;20025;-77
2022/11/10 07:34:39;;;;;;;15.93;2.92;;;;;;;10.56;100.00;101240.13;5189589;28;20026;-75
2022/11/10 07:37:09;;;;;;;10.77;3.15;;;;;;;10.51;100.00;101239.41;5195795;28;20033;-76
2022/11/10 07:39:39;;;;;;;12.95;2.80;;;;;;;10.69;100.00;101228.50;5196245;28;20455;-76
2022/11/10 07:42:10;;;;;;;10.70;2.80;;;;;;;10.85;100.00;101224.59;5192341;28;20037;-76
2022/11/10 07:44:40;;;;;;;11.23;2.72;;;;;;;10.98;100.00;101247.75;5181441;28;20547;-77
2022/11/10 07:47:11;;;;;;;13.85;2.72;;;;;;;11.06;100.00;101254.47;5201246;28;20060;-73
2022/11/10 07:49:41;;;;;;;12.30;2.15;;;;;;;11.35;100.00;101251.94;5195300;28;20563;-77
2022/11/10 07:52:11;;;;;;;9.90;2.42;;;;;;;11.35;100.00;101249.31;5195759;28;20095;-77
2022/11/10 07:54:42;;;;;;;12.13;2.47;;;;;;;12.39;100.00;101247.03;5188438;28;20108;-76
2022/11/10 07:57:12;;;;;;;11.02;2.28;;;;;;;13.23;100.00;101246.78;5184482;28;20514;-77
2022/11/10 07:59:42;;;;;;;11.77;2.10;;;;;;;13.45;98.34;101252.97;5184469;28;20026;-76
2022/11/10 08:02:12;;;;;;;12.68;2.70;;;;;;;14.11;94.03;101242.53;5183809;28;20061;-77
2022/11/10 08:04:43;;;;;;;13.77;2.45;;;;;;;13.10;97.28;101240.25;5186676;28;20392;-77
2022/11/10 08:07:13;;;;;;;10.57;2.20;;;;;;;12.71;99.43;101249.47;5189086;28;20403;-77
2022/11/10 08:09:43;;;;;;;10.60;2.60;;;;;;;12.57;100.00;101264.78;5195717;28;20483;-77
2022/11/10 08:12:14;;;;;;;11.95;2.65;;;;;;;12.41;100.00;101279.31;5201773;28;20056;-77
2022/11/10 08:14:44;;;;;;;13.73;2.38;;;;;;;12.55;100.00;101277.09;5202227;28;20391;-76
2022/11/10 08:17:14;;;;;;;9.13;2.20;;;;;;;13.47;98.65;101262.53;5202116;28;20029;-77
2022/11/10 08:19:44;;;;;;;10.32;2.22;;;;;;;13.43;97.55;101270.56;5201911;28;20483;-77
2022/11/10 08:22:15;;;;;;;8.27;2.08;;;;;;;13.23;99.15;101273.88;5195602;28;20056;-77
2022/11/10 08:24:45;;;;;;;11.82;2.30;;;;;;;13.64;96.30;101286.41;5195982;28;20021;-76
2022/11/10 08:27:15;;;;;;;9.68;1.77;;;;;;;13.78;95.17;101289.34;5201830;28;20528;-76
2022/11/10 08:29:46;;;;;;;11.52;2.20;;;;;;;13.32;95.83;101297.19;5201960;28;20063;-77
2022/11/10 08:32:16;;;;;;;11.82;2.20;;;;;;;12.99;97.20;101308.00;5200966;28;20288;-77
2022/11/10 08:34:46;;;;;;;11.52;2.53;;;;;;;13.03;98.58;101307.84;5201612;28;20450;-77
2022/11/10 08:37:17;;;;;;;12.35;2.17;;;;;;;12.89;98.92;101315.28;5192651;28;20033;-77
2022/11/10 08:39:47;;;;;;;11.60;2.10;;;;;;;13.31;99.09;101307.75;5195921;28;20056;-77
2022/11/10 08:42:17;;;;;;;10.85;1.90;;;;;;;13.27;98.86;101314.00;5200744;28;20041;-77
2022/11/10 08:44:48;;;;;;;7.68;2.10;;;;;;;13.04;98.37;101324.47;5201556;28;20013;-77
2022/11/10 08:47:18;;;;;;;16.05;2.03;;;;;;;12.69;100.00;101332.59;5194212;28;20034;-77
2022/11/10 08:49:48;;;;;;;12.55;2.08;;;;;;;12.75;100.00;101329.75;5192065;28;20033;-77
2022/11/10 08:52:18;;;;;;;12.13;2.00;;;;;;;13.27;100.00;101327.16;5200931;28;20044;-77
2022/11/10 08:54:49;;;;;;;10.40;2.10;;;;;;;13.35;98.61;101335.59;5194829;28;20457;-76
2022/11/10 08:57:19;;;;;;;13.48;3.38;;;;;;;13.59;98.27;101330.34;5193958;28;20108;-77
2022/11/10 08:59:49;;;;;;;11.07;2.35;;;;;;;13.80;97.70;101344.47;5190720;28;20198;-77
2022/11/10 09:02:19;;;;;;;10.85;2.30;;;;;;;13.75;97.27;101335.91;5189188;28;20049;-76
2022/11/10 09:04:50;;;;;;;18.58;3.05;;;;;;;14.14;97.61;101330.06;5195902;28;20032;-77
2022/11/10 09:07:20;;;;;;;12.70;2.97;;;;;;;13.78;95.82;101338.44;5192164;28;20402;-77
2022/11/10 09:09:50;;;;;;;12.75;2.83;;;;;;;13.79;96.72;101337.50;5195145;28;20033;-77
2022/11/10 09:12:21;;;;;;;10.40;3.00;;;;;;;13.99;97.00;101345.53;5199728;28;20029;-77
2022/11/10 09:14:51;;;;;;;17.52;3.58;;;;;;;13.96;95.69;101351.75;5200904;28;20049;-77
2022/11/10 09:17:21;;;;;;;12.73;2.50;;;;;;;13.97;95.57;101349.97;5200771;28;20151;-77
2022/11/10 09:19:52;;;;;;;13.40;2.83;;;;;;;13.95;95.20;101352.66;5200798;28;20026;-77
2022/11/10 09:22:22;;;;;;;10.68;2.63;;;;;;;13.90;95.39;101351.13;5201302;28;20032;-76
2022/11/10 09:24:52;;;;;;;10.38;2.90;;;;;;;14.11;94.86;101350.31;5201097;28;20035;-76
2022/11/10 09:27:22;;;;;;;14.57;2.10;;;;;;;14.03;93.86;101360.25;5199982;28;20091;-77
2022/11/10 09:29:53;;;;;;;8.40;2.35;;;;;;;14.02;93.91;101367.31;5200707;28;20033;-77
2022/11/10 09:32:23;;;;;;;10.57;2.35;;;;;;;13.84;94.55;101373.22;5192054;28;20033;-77
2022/11/10 09:34:53;;;;;;;8.80;2.15;;;;;;;14.13;94.08;101372.16;5192691;28;20510;-77
2022/11/10 09:37:24;;;;;;;12.32;2.13;;;;;;;14.09;94.51;101381.06;5189988;28;20026;-75
2022/11/10 09:39:54;;;;;;;10.05;2.03;;;;;;;13.98;93.88;101385.84;5195667;28;20061;-77
2022/11/10 09:42:36;;;;;;;10.18;1.73;;;;;;;13.86;94.31;101386.28;5195764;28;20026;-77
2022/11/10 09:45:19;;;;;;;15.55;2.63;;;;;;;14.09;93.69;101394.22;5188305;28;20036;-77
2022/11/10 09:48:21;;;;;;;9.05;1.80;;;;;;;14.08;93.46;101397.78;5190858;28;20539;-76
2022/11/10 09:51:00;;;;;;;11.73;2.08;;;;;;;14.26;93.65;101397.13;5194049;28;20021;-77
2022/11/10 09:53:53;;;;;;;9.02;1.60;;;;;;;14.40;93.19;101398.31;5203398;28;20025;-77
2022/11/10 09:56:33;;;;;;;10.68;1.80;;;;;;;14.53;93.29;101401.31;5191189;28;20491;-76
2022/11/10 09:59:13;;;;;;;10.70;2.22;;;;;;;14.33;92.57;101403.84;5189868;28;20029;-77
2022/11/10 10:01:46;;;;;;;12.57;2.10;;;;;;;14.15;93.37;101402.75;5198538;28;20088;-77
2022/11/10 10:04:47;;;;;;;10.52;1.85;;;;;;;14.09;93.01;101389.81;5198168;28;20452;-76
2022/11/10 10:07:26;;;;;;;12.77;2.08;;;;;;;14.21;93.41;101388.53;5203668;28;20060;-77
2022/11/10 10:10:30;;;;;;;11.27;2.03;;;;;;;14.39;91.91;101393.13;5198683;28;20029;-77
2022/11/10 10:13:22;;;;;;;12.73;2.03;;;;;;;14.39;92.38;101401.00;5203018;28;20162;-76
2022/11/10 10:16:18;;;;;;;9.00;2.00;;;;;;;14.12;91.98;101394.09;5195915;28;20030;-77
2022/11/10 10:19:13;;;;;;;7.25;1.85;;;;;;;14.02;92.43;101405.84;5191179;28;20028;-76
2022/11/10 10:22:07;;;;;;;10.18;1.83;;;;;;;14.32;92.44;101407.41;5186331;28;20042;-77
2022/11/10 10:24:38;;;;;;;9.20;1.63;;;;;;;14.40;93.01;101405.34;5184008;28;20352;-77
2022/11/10 10:27:14;;;;;;;10.82;2.03;;;;;;;14.47;91.25;101401.56;5185343;28;20030;-76
2022/11/10 10:29:48;;;;;;;10.18;1.90;;;;;;;14.58;89.09;101409.91;5183706;28;20072;-76
2022/11/10 10:32:21;;;;;;;12.68;1.88;;;;;;;14.56;87.69;101407.31;5186301;28;20025;-77
2022/11/10 10:34:51;;;;;;;10.27;1.80;;;;;;;14.34;88.10;101405.56;5183841;28;20026;-77
2022/11/10 10:37:24;;;;;;;10.68;2.10;;;;;;;14.47;88.29;101410.31;5183428;28;20026;-77
2022/11/10 10:39:54;;;;;;;12.77;2.50;;;;;;;14.23;87.77;101418.28;5185038;28;20060;-76
2022/11/10 10:42:34;;;;;;;12.57;2.17;;;;;;;14.37;87.67;101421.22;5185717;28;20486;-77
2022/11/10 10:45:22;;;;;;;14.73;2.20;;;;;;;14.31;87.37;101411.81;5184660;28;20040;-77
2022/11/10 10:47:54;;;;;;;9.70;2.05;;;;;;;14.37;87.91;101421.22;5183245;28;21474;-76
2022/11/10 10:53:06;;;;;;;10.60;2.10;;;;;;;14.30;87.63;101419.75;5201220;28;20057;-73
2022/11/10 10:55:37;;;;;;;12.90;2.03;;;;;;;14.30;88.84;101412.72;5203205;28;20064;-73
2022/11/10 10:58:23;;;;;;;16.88;2.00;;;;;;;14.13;88.14;101411.59;5211117;28;20029;-73
2022/11/10 11:01:00;;;;;;;13.15;2.40;;;;;;;14.14;89.59;101418.56;5211624;28;20044;-74
2022/11/10 11:03:41;;;;;;;12.20;1.98;;;;;;;14.28;89.21;101417.16;5214035;28;20085;-73
2022/11/10 11:06:14;;;;;;;12.93;2.28;;;;;;;14.15;88.29;101426.41;5208857;28;20033;-73
2022/11/10 11:09:22;;;;;;;14.27;1.90;;;;;;;14.24;88.54;101422.63;5202584;28;20375;-73
2022/11/10 11:12:00;;;;;;;11.80;1.80;;;;;;;14.27;89.06;101425.13;5199360;28;20101;-74
2022/11/10 11:14:31;;;;;;;8.07;1.85;;;;;;;14.28;88.90;101427.69;5209241;28;20032;-74
2022/11/10 11:17:11;;;;;;;9.98;1.98;;;;;;;14.24;88.43;101431.34;5210906;28;20025;-74
2022/11/10 11:19:41;;;;;;;11.55;1.80;;;;;;;14.20;88.27;101423.63;5208501;28;20025;-74
2022/11/10 11:22:33;;;;;;;9.63;1.80;;;;;;;14.29;88.35;101434.66;5209998;28;20033;-72
2022/11/10 11:25:20;;;;;;;10.85;2.05;;;;;;;14.24;88.69;101426.09;5205515;28;20112;-74
2022/11/10 11:28:29;;;;;;;13.23;2.33;;;;;;;14.31;89.33;101432.84;5208399;28;20080;-73
2022/11/10 11:31:28;;;;;;;15.50;2.40;;;;;;;14.25;87.84;101440.09;5205762;28;20032;-74
2022/11/10 11:34:20;;;;;;;13.00;2.30;;;;;;;14.18;88.34;101447.34;5198981;28;20865;-73
2022/11/10 11:37:05;;;;;;;12.50;2.08;;;;;;;14.32;89.28;101444.22;5198466;28;20221;-73
2022/11/10 11:39:54;;;;;;;10.60;2.20;;;;;;;14.29;90.24;101446.97;5197540;28;20112;-74
2022/11/10 11:42:47;;;;;;;7.82;1.85;;;;;;;14.36;89.87;101445.81;5206494;28;20119;-73
2022/11/10 11:45:50;;;;;;;9.60;1.80;;;;;;;14.41;89.42;101443.88;5205888;28;20062;-74
2022/11/10 11:48:41;;;;;;;11.10;1.98;;;;;;;14.53;88.87;101443.41;5207445;28;20028;-73
2022/11/10 11:51:14;;;;;;;11.80;1.92;;;;;;;14.53;88.21;101448.66;5206848;28;20487;-74
2022/11/10 11:53:59;;;;;;;13.35;2.10;;;;;;;14.62;88.69;101446.53;5211678;28;20037;-74
2022/11/10 11:56:33;;;;;;;11.40;2.17;;;;;;;14.69;88.46;101439.28;5210413;28;20052;-73
2022/11/10 11:59:49;;;;;;;12.75;1.92;;;;;;;14.79;88.29;101449.38;5206028;28;20554;-74
2022/11/10 12:02:19;;;;;;;14.43;2.20;;;;;;;14.76;88.17;101448.66;5200855;28;20080;-74
2022/11/10 12:05:21;;;;;;;13.23;1.90;;;;;;;14.82;86.36;101450.13;5207699;28;20459;-74
2022/11/10 12:08:04;;;;;;;14.90;2.08;;;;;;;14.77;86.72;101455.66;5203514;28;20045;-74
2022/11/10 12:11:00;;;;;;;10.70;2.10;;;;;;;14.81;86.26;101454.59;5209548;28;20057;-74